createdAt,value
2023-01-06T00:01:12.039Z,5.70
2023-01-06T00:03:39.201Z,3.80
2023-01-06T00:06:08.202Z,4.03
2023-01-06T00:08:36.008Z,3.00
2023-01-06T00:11:08.575Z,3.60
2023-01-06T00:13:35.829Z,4.10
2023-01-06T00:16:21.977Z,4.07
2023-01-06T00:18:49.374Z,3.55
2023-01-06T00:21:16.562Z,3.38
2023-01-06T00:23:43.809Z,3.25
2023-01-06T00:26:11.445Z,2.55
2023-01-06T00:28:38.662Z,3.50
2023-01-06T00:31:16.463Z,3.53
2023-01-06T00:33:43.838Z,2.97
2023-01-06T00:36:12.691Z,3.15
2023-01-06T00:38:40.198Z,2.88
2023-01-06T00:41:31.518Z,2.95
2023-01-06T00:43:59.226Z,2.70
2023-01-06T00:46:29.315Z,2.53
2023-01-06T00:49:06.876Z,2.70
2023-01-06T00:51:36.293Z,2.38
2023-01-06T00:54:03.566Z,2.50
2023-01-06T00:56:30.780Z,2.45
2023-01-06T00:58:57.970Z,2.58
2023-01-06T01:01:25.219Z,2.10
2023-01-06T01:03:52.422Z,2.10
2023-01-06T01:06:19.626Z,1.90
2023-01-06T01:08:46.815Z,2.13
2023-01-06T01:11:33.933Z,2.20
2023-01-06T01:14:01.089Z,2.42
2023-01-06T01:16:28.374Z,2.28
2023-01-06T01:18:55.572Z,2.10
2023-01-06T01:21:22.730Z,1.92
2023-01-06T01:23:49.940Z,1.88
2023-01-06T01:26:17.181Z,1.80
2023-01-06T01:28:44.673Z,1.83
2023-01-06T01:31:13.288Z,2.00
2023-01-06T01:33:40.635Z,2.70
2023-01-06T01:36:09.858Z,1.70
2023-01-06T01:38:40.713Z,2.05
2023-01-06T01:41:08.859Z,2.00
2023-01-06T01:43:50.872Z,2.00
2023-01-06T01:46:26.294Z,2.20
2023-01-06T01:48:55.444Z,2.13
2023-01-06T01:51:28.563Z,1.77
2023-01-06T01:53:59.174Z,2.30
2023-01-06T01:56:29.751Z,1.90
2023-01-06T01:59:02.292Z,1.80
2023-01-06T02:01:30.352Z,1.67
2023-01-06T02:03:57.726Z,1.83
2023-01-06T02:06:26.758Z,1.90
2023-01-06T02:09:08.038Z,2.17
2023-01-06T02:11:38.129Z,2.15
2023-01-06T02:14:15.460Z,1.73
2023-01-06T02:17:13.634Z,1.98
2023-01-06T02:20:02.269Z,2.00
2023-01-06T02:23:06.611Z,2.67
2023-01-06T02:26:03.061Z,2.38
2023-01-06T02:28:50.522Z,2.10
2023-01-06T02:31:48.665Z,1.98
2023-01-06T02:34:41.956Z,2.40
2023-01-06T02:37:18.447Z,2.17
2023-01-06T02:40:10.352Z,1.80
2023-01-06T02:42:57.722Z,1.80
2023-01-06T02:45:36.746Z,2.15
2023-01-06T02:48:34.149Z,2.13
2023-01-06T02:51:18.563Z,1.95
2023-01-06T02:53:58.831Z,2.53
2023-01-06T02:56:29.412Z,2.13
2023-01-06T02:59:01.139Z,2.20
2023-01-06T03:01:35.434Z,2.00
2023-01-06T03:04:05.591Z,1.88
2023-01-06T03:06:33.963Z,2.67
2023-01-06T03:09:01.655Z,2.30
2023-01-06T03:11:30.145Z,2.17
2023-01-06T03:14:02.982Z,2.40
2023-01-06T03:16:30.351Z,2.03
2023-01-06T03:18:57.742Z,2.13
2023-01-06T03:21:27.441Z,2.40
2023-01-06T03:23:54.817Z,2.33
2023-01-06T03:26:22.438Z,2.08
2023-01-06T03:28:49.590Z,2.50
2023-01-06T03:31:37.588Z,2.10
2023-01-06T03:34:33.630Z,1.80
2023-01-06T03:37:19.848Z,2.88
2023-01-06T03:39:58.127Z,2.47
2023-01-06T03:42:59.047Z,2.40
2023-01-06T03:45:53.699Z,2.75
2023-01-06T03:48:40.451Z,3.10
2023-01-06T03:51:25.832Z,2.95
2023-01-06T03:54:04.453Z,3.33
2023-01-06T03:56:38.826Z,3.55
2023-01-06T03:59:15.229Z,2.30
2023-01-06T04:01:45.800Z,3.08
2023-01-06T04:04:13.030Z,3.38
2023-01-06T04:06:40.207Z,2.85
2023-01-06T04:09:07.470Z,2.83
2023-01-06T04:11:53.030Z,3.53
2023-01-06T04:14:20.356Z,3.30
2023-01-06T04:16:47.550Z,3.95
2023-01-06T04:19:14.757Z,3.85
2023-01-06T04:21:41.951Z,4.15
2023-01-06T04:24:09.152Z,3.97
2023-01-06T04:26:36.344Z,5.07
2023-01-06T04:29:03.792Z,4.18
2023-01-06T04:31:31.009Z,4.78
2023-01-06T04:33:58.162Z,5.00
2023-01-06T04:36:25.348Z,4.65
2023-01-06T04:38:52.567Z,4.63
2023-01-06T04:41:19.966Z,4.82
2023-01-06T04:43:47.149Z,5.45
2023-01-06T04:46:14.314Z,5.13
2023-01-06T04:48:41.520Z,5.53
2023-01-06T04:51:10.073Z,5.75
2023-01-06T04:53:39.570Z,5.90
2023-01-06T04:56:09.149Z,5.78
2023-01-06T04:58:36.910Z,6.75
2023-01-06T05:01:09.980Z,5.95
2023-01-06T05:03:37.742Z,6.50
2023-01-06T05:06:12.513Z,6.90
2023-01-06T05:08:40.732Z,6.90
2023-01-06T05:11:15.160Z,6.60
2023-01-06T05:13:42.556Z,7.25
2023-01-06T05:16:23.846Z,7.15
2023-01-06T05:18:51.049Z,6.78
2023-01-06T05:21:18.409Z,8.23
2023-01-06T05:23:45.806Z,7.00
2023-01-06T05:26:18.661Z,7.32
2023-01-06T05:28:45.877Z,7.88
2023-01-06T05:31:13.351Z,7.22
2023-01-06T05:33:40.943Z,8.00
2023-01-06T05:36:16.645Z,7.22
2023-01-06T05:38:44.371Z,7.65
2023-01-06T05:41:11.875Z,7.72
2023-01-06T05:43:39.611Z,8.38
2023-01-06T05:46:10.786Z,8.48
2023-01-06T05:48:38.559Z,9.77
2023-01-06T05:51:07.880Z,8.13
2023-01-06T05:56:04.226Z,8.27
2023-01-06T05:58:33.406Z,9.38
2023-01-06T06:01:01.771Z,8.30
2023-01-06T06:03:29.085Z,10.18
2023-01-06T06:05:56.282Z,9.43
2023-01-06T06:08:23.483Z,9.43
2023-01-06T06:10:50.690Z,10.20
2023-01-06T06:13:17.837Z,9.35
2023-01-06T06:15:45.003Z,9.63
2023-01-06T06:18:12.150Z,9.88
2023-01-06T06:20:39.321Z,10.55
2023-01-06T06:23:06.482Z,11.02
2023-01-06T06:25:33.670Z,11.05
2023-01-06T06:28:00.831Z,10.82
2023-01-06T06:30:28.032Z,11.00
2023-01-06T06:32:55.180Z,10.25
2023-01-06T06:35:22.340Z,10.05
2023-01-06T06:37:49.547Z,9.40
2023-01-06T06:40:16.800Z,8.43
2023-01-06T06:42:43.991Z,9.32
2023-01-06T06:45:11.411Z,9.20
2023-01-06T06:47:38.597Z,9.18
2023-01-06T06:50:05.953Z,9.75
2023-01-06T06:52:33.146Z,10.15
2023-01-06T06:55:00.911Z,10.05
2023-01-06T06:57:28.074Z,10.75
2023-01-06T06:59:57.885Z,10.57
2023-01-06T07:02:25.074Z,10.05
2023-01-06T07:04:52.305Z,10.25
2023-01-06T07:07:19.467Z,9.30
2023-01-06T07:09:46.728Z,10.95
2023-01-06T07:12:13.921Z,10.32
2023-01-06T07:14:41.122Z,9.48
2023-01-06T07:17:08.290Z,9.43
2023-01-06T07:19:35.459Z,9.95
2023-01-06T07:22:02.677Z,11.05
2023-01-06T07:24:29.896Z,9.45
2023-01-06T07:26:57.073Z,11.88
2023-01-06T07:29:24.233Z,11.13
2023-01-06T07:31:51.459Z,10.73
2023-01-06T07:34:18.675Z,11.75
2023-01-06T07:36:45.843Z,14.13
2023-01-06T07:39:13.019Z,13.23
2023-01-06T07:41:40.185Z,15.45
2023-01-06T07:44:07.340Z,13.60
2023-01-06T07:46:34.537Z,13.40
2023-01-06T07:49:01.712Z,21.48
2023-01-06T07:51:28.882Z,13.75
2023-01-06T07:53:56.235Z,11.07
2023-01-06T07:56:23.765Z,11.20
2023-01-06T07:58:50.969Z,11.98
2023-01-06T08:01:18.251Z,13.07
2023-01-06T08:03:45.499Z,14.98
2023-01-06T08:06:13.201Z,13.15
2023-01-06T08:08:41.214Z,12.75
2023-01-06T08:11:10.361Z,11.45
2023-01-06T08:13:37.973Z,11.85
2023-01-06T08:16:06.783Z,12.55
2023-01-06T08:18:34.000Z,12.07
2023-01-06T08:21:05.699Z,12.90
2023-01-06T08:23:33.018Z,12.48
2023-01-06T08:26:04.836Z,11.98
2023-01-06T08:28:32.366Z,12.07
2023-01-06T08:31:00.267Z,13.63
2023-01-06T08:33:27.962Z,14.45
2023-01-06T08:36:03.028Z,13.15
2023-01-06T08:38:30.920Z,14.20
2023-01-06T08:40:59.636Z,14.90
2023-01-06T08:43:27.418Z,15.45
2023-01-06T08:45:54.822Z,14.68
2023-01-06T08:48:21.987Z,15.10
2023-01-06T08:50:49.183Z,15.52
2023-01-06T08:53:16.331Z,16.27
2023-01-06T08:55:43.998Z,16.10
2023-01-06T08:58:11.244Z,16.40
2023-01-06T09:00:40.726Z,16.50
2023-01-06T09:03:08.002Z,16.92
2023-01-06T09:05:35.241Z,17.08
2023-01-06T09:08:02.507Z,15.90
2023-01-06T09:10:29.700Z,17.48
2023-01-06T09:12:56.936Z,16.48
2023-01-06T09:15:24.177Z,16.92
2023-01-06T09:17:51.411Z,17.38
2023-01-06T09:20:18.713Z,17.55
2023-01-06T09:22:46.283Z,18.80
2023-01-06T09:25:13.532Z,17.15
2023-01-06T09:27:40.724Z,19.02
2023-01-06T09:30:08.489Z,19.70
2023-01-06T09:32:35.872Z,18.77
2023-01-06T09:35:03.070Z,17.65
2023-01-06T09:37:30.293Z,18.27
2023-01-06T09:39:57.479Z,18.02
2023-01-06T09:42:45.839Z,18.38
2023-01-06T09:45:20.045Z,17.23
2023-01-06T09:47:53.976Z,16.70
2023-01-06T09:50:25.357Z,18.23
2023-01-06T09:53:11.504Z,17.88
2023-01-06T09:55:51.390Z,17.45
2023-01-06T09:58:22.047Z,19.05
2023-01-06T10:00:52.605Z,16.70
2023-01-06T10:03:21.640Z,16.95
2023-01-06T10:06:05.611Z,18.20
2023-01-06T10:08:41.768Z,17.10
2023-01-06T10:11:25.803Z,15.93
2023-01-06T10:14:18.083Z,16.58
2023-01-06T10:16:58.674Z,16.80
2023-01-06T10:19:55.429Z,15.57
2023-01-06T10:22:41.159Z,16.63
2023-01-06T10:25:22.956Z,16.40
2023-01-06T10:27:55.788Z,15.05
2023-01-06T10:30:36.728Z,15.50
2023-01-06T10:33:04.941Z,14.13
2023-01-06T10:35:33.334Z,15.52
2023-01-06T10:38:04.849Z,13.83
2023-01-06T10:40:33.154Z,13.30
2023-01-06T10:43:11.954Z,13.27
2023-01-06T10:45:46.790Z,13.98
2023-01-06T10:48:26.343Z,13.48
2023-01-06T10:50:55.179Z,12.57
2023-01-06T10:53:23.687Z,12.80
2023-01-06T10:56:00.914Z,12.88
2023-01-06T10:58:42.904Z,11.85
2023-01-06T11:01:17.437Z,12.25
2023-01-06T11:03:47.189Z,12.07
2023-01-06T11:06:18.723Z,11.50
2023-01-06T11:08:46.076Z,10.80
2023-01-06T11:11:27.212Z,12.00
2023-01-06T11:14:01.194Z,11.73
2023-01-06T11:16:33.391Z,11.63
2023-01-06T11:19:06.581Z,12.52
2023-01-06T11:21:46.664Z,11.88
2023-01-06T11:24:20.424Z,11.77
2023-01-06T11:27:16.620Z,12.20
2023-01-06T11:29:43.799Z,12.70
2023-01-06T11:32:27.775Z,12.82
2023-01-06T11:35:01.132Z,12.27
2023-01-06T11:37:40.512Z,11.80
2023-01-06T11:40:27.418Z,13.02
2023-01-06T11:42:57.460Z,12.15
2023-01-06T11:45:42.307Z,12.55
2023-01-06T11:48:19.009Z,11.50
2023-01-06T11:50:57.431Z,10.18
2023-01-06T11:53:25.322Z,9.47
2023-01-06T11:56:04.265Z,9.23
2023-01-06T11:59:02.141Z,9.43
2023-01-06T12:01:34.804Z,7.90
2023-01-06T12:04:26.216Z,8.18
2023-01-06T12:06:57.611Z,7.47
2023-01-06T12:09:31.670Z,6.80
2023-01-06T12:12:03.228Z,6.90
2023-01-06T12:14:33.979Z,5.72
2023-01-06T12:17:50.777Z,5.53
2023-01-06T12:20:28.920Z,5.38
2023-01-06T12:23:00.497Z,4.70
2023-01-06T12:25:34.101Z,4.43
2023-01-06T12:28:07.110Z,4.70
2023-01-06T12:30:54.246Z,3.25
2023-01-06T12:33:40.252Z,3.70
2023-01-06T12:36:31.018Z,2.67
2023-01-06T12:39:01.924Z,3.08
2023-01-06T12:41:44.403Z,2.70
2023-01-06T12:44:33.090Z,2.67
2023-01-06T12:47:34.468Z,2.20
2023-01-06T12:50:10.429Z,2.40
2023-01-06T12:53:07.322Z,2.00
2023-01-06T12:55:42.718Z,2.08
2023-01-06T12:58:43.570Z,1.90
2023-01-06T13:01:46.840Z,1.85
2023-01-06T13:04:48.866Z,1.67
2023-01-06T13:07:44.945Z,1.50
2023-01-06T13:10:30.280Z,1.60
2023-01-06T13:13:28.733Z,1.45
2023-01-06T13:15:59.218Z,1.30
2023-01-06T13:18:55.356Z,1.30
2023-01-06T13:21:24.007Z,1.33
2023-01-06T13:24:06.146Z,2.28
2023-01-06T13:27:01.993Z,1.88
2023-01-06T13:30:03.321Z,1.20
2023-01-06T13:32:49.847Z,1.50
2023-01-06T13:35:45.714Z,1.38
2023-01-06T13:38:31.573Z,1.00
2023-01-06T13:41:04.262Z,1.27
2023-01-06T13:43:33.472Z,1.08
2023-01-06T13:48:32.151Z,1.10
2023-01-06T13:51:03.528Z,1.35
2023-01-06T13:53:37.819Z,1.00
2023-01-06T13:56:13.897Z,1.10
2023-01-06T13:58:42.672Z,1.90
2023-01-06T14:01:15.665Z,1.40
2023-01-06T14:03:44.172Z,0.75
2023-01-06T14:06:13.630Z,1.03
2023-01-06T14:08:53.190Z,0.80
2023-01-06T14:11:28.256Z,1.10
2023-01-06T14:13:57.861Z,1.20
2023-01-06T14:16:49.743Z,1.38
2023-01-06T14:19:35.176Z,1.30
2023-01-06T14:22:24.128Z,1.33
2023-01-06T14:24:55.213Z,1.92
2023-01-06T14:27:47.331Z,1.55
2023-01-06T14:30:21.959Z,2.20
2023-01-06T14:32:49.128Z,1.20
2023-01-06T14:35:18.751Z,1.45
2023-01-06T14:37:53.145Z,1.40
2023-01-06T14:40:26.221Z,1.25
2023-01-06T14:42:55.223Z,1.00
2023-01-06T14:45:30.365Z,1.10
2023-01-06T14:48:05.673Z,1.40
2023-01-06T14:50:46.460Z,1.88
2023-01-06T14:53:32.759Z,1.70
2023-01-06T14:56:00.577Z,1.50
2023-01-06T14:58:30.071Z,1.48
2023-01-06T15:00:57.627Z,1.40
2023-01-06T15:03:29.437Z,1.38
2023-01-06T15:06:19.528Z,1.40
2023-01-06T15:08:46.848Z,1.52
2023-01-06T15:11:39.389Z,1.25
2023-01-06T15:14:06.586Z,1.15
2023-01-06T15:16:36.964Z,1.50
2023-01-06T15:19:07.498Z,1.45
2023-01-06T15:21:40.208Z,1.70
2023-01-06T15:24:18.934Z,1.20
2023-01-06T15:26:46.113Z,1.40
2023-01-06T15:29:25.109Z,1.83
2023-01-06T15:31:53.549Z,1.85
2023-01-06T15:34:23.635Z,2.47
2023-01-06T15:36:56.511Z,1.50
2023-01-06T15:39:30.290Z,1.80
2023-01-06T15:41:58.315Z,1.80
2023-01-06T15:44:36.457Z,2.53
2023-01-06T15:47:12.438Z,1.92
2023-01-06T15:49:42.803Z,2.80
2023-01-06T15:52:23.208Z,2.72
2023-01-06T15:54:51.663Z,3.08
2023-01-06T15:57:19.070Z,2.70
2023-01-06T16:00:07.843Z,2.63
2023-01-06T16:02:35.139Z,2.58
2023-01-06T16:05:02.633Z,2.47
2023-01-06T16:07:44.643Z,2.00
2023-01-06T16:10:50.549Z,2.10
2023-01-06T16:13:28.352Z,1.98
2023-01-06T16:16:07.123Z,1.95
2023-01-06T16:18:36.715Z,2.38
2023-01-06T16:21:31.781Z,1.70
2023-01-06T16:24:14.699Z,1.90
2023-01-06T16:26:44.386Z,2.30
2023-01-06T16:29:29.127Z,1.80
2023-01-06T16:31:58.066Z,1.75
2023-01-06T16:34:30.573Z,2.00
2023-01-06T16:36:59.674Z,1.77
2023-01-06T16:39:27.704Z,1.80
2023-01-06T16:42:01.045Z,2.10
2023-01-06T16:44:34.174Z,2.00
2023-01-06T16:47:02.779Z,2.00
2023-01-06T16:49:31.029Z,2.30
2023-01-06T16:51:58.213Z,2.38
2023-01-06T16:54:25.429Z,2.10
2023-01-06T16:56:52.675Z,2.33
2023-01-06T16:59:22.670Z,2.42
2023-01-06T17:01:49.960Z,2.60
2023-01-06T17:04:17.285Z,2.60
2023-01-06T17:06:46.407Z,2.90
2023-01-06T17:09:19.778Z,2.60
2023-01-06T17:11:54.169Z,2.58
2023-01-06T17:14:22.639Z,2.88
2023-01-06T17:16:53.333Z,2.50
2023-01-06T17:19:20.487Z,2.95
2023-01-06T17:21:49.955Z,2.97
2023-01-06T17:24:21.046Z,3.33
2023-01-06T17:27:02.316Z,3.42
2023-01-06T17:29:33.466Z,3.28
2023-01-06T17:32:03.331Z,3.13
2023-01-06T17:34:36.855Z,3.75
2023-01-06T17:37:32.820Z,3.28
2023-01-06T17:39:59.987Z,3.38
2023-01-06T17:42:32.309Z,4.78
2023-01-06T17:45:00.495Z,2.80
2023-01-06T17:47:29.934Z,2.90
2023-01-06T17:50:01.250Z,4.05
2023-01-06T17:53:06.677Z,3.67
2023-01-06T17:55:44.925Z,3.42
2023-01-06T17:58:17.048Z,3.53
2023-01-06T18:00:45.035Z,3.67
2023-01-06T18:03:22.480Z,3.70
2023-01-06T18:05:54.666Z,3.85
2023-01-06T18:08:22.690Z,3.90
2023-01-06T18:10:57.071Z,3.70
2023-01-06T18:13:28.726Z,3.65
2023-01-06T18:16:00.554Z,3.60
2023-01-06T18:18:28.551Z,3.78
2023-01-06T18:21:11.270Z,3.58
2023-01-06T18:23:38.470Z,3.42
2023-01-06T18:26:31.021Z,3.60
2023-01-06T18:29:08.499Z,3.22
2023-01-06T18:31:39.120Z,4.30
2023-01-06T18:34:18.969Z,3.90
2023-01-06T18:36:48.321Z,4.60
2023-01-06T18:39:22.231Z,4.20
2023-01-06T18:41:51.025Z,4.03
2023-01-06T18:44:20.443Z,4.70
2023-01-06T18:49:15.939Z,4.75
2023-01-06T18:51:43.796Z,4.87
2023-01-06T18:54:18.334Z,4.40
2023-01-06T18:56:45.697Z,4.55
2023-01-06T18:59:17.510Z,4.63
2023-01-06T19:01:52.446Z,5.00
2023-01-06T19:04:31.870Z,4.72
2023-01-06T19:07:02.278Z,4.72
2023-01-06T19:09:38.358Z,4.38
2023-01-06T19:12:08.451Z,5.28
2023-01-06T19:14:43.663Z,4.65
2023-01-06T19:17:27.132Z,4.57
2023-01-06T19:19:56.089Z,4.63
2023-01-06T19:22:34.078Z,5.20
2023-01-06T19:25:35.003Z,5.53
2023-01-06T19:28:10.719Z,6.22
2023-01-06T19:31:04.533Z,6.28
2023-01-06T19:33:51.745Z,5.50
2023-01-06T19:36:41.961Z,6.25
2023-01-06T19:39:30.325Z,5.82
2023-01-06T19:42:22.173Z,5.60
2023-01-06T19:44:51.916Z,5.78
2023-01-06T19:47:35.623Z,5.82
2023-01-06T19:50:19.430Z,6.95
2023-01-06T19:52:46.624Z,6.93
2023-01-06T19:55:27.110Z,6.10
2023-01-06T19:58:01.277Z,5.90
2023-01-06T20:00:48.198Z,6.10
2023-01-06T20:03:36.846Z,6.68
2023-01-06T20:06:04.403Z,6.15
2023-01-06T20:08:31.665Z,6.20
2023-01-06T20:10:58.858Z,6.70
2023-01-06T20:13:26.036Z,6.63
2023-01-06T20:15:53.213Z,7.15
2023-01-06T20:18:20.410Z,7.07
2023-01-06T20:20:47.563Z,7.00
2023-01-06T20:23:15.346Z,6.43
2023-01-06T20:25:42.605Z,7.15
2023-01-06T20:28:09.813Z,7.28
2023-01-06T20:30:37.096Z,8.00
2023-01-06T20:33:04.409Z,8.10
2023-01-06T20:35:31.728Z,8.15
2023-01-06T20:37:59.037Z,7.45
2023-01-06T20:40:26.211Z,7.85
2023-01-06T20:42:53.385Z,7.93
2023-01-06T20:45:20.768Z,8.40
2023-01-06T20:47:48.322Z,7.68
2023-01-06T20:50:15.515Z,7.32
2023-01-06T20:52:45.266Z,8.27
2023-01-06T20:55:12.656Z,7.40
2023-01-06T20:57:39.836Z,8.02
2023-01-06T21:00:09.596Z,8.55
2023-01-06T21:02:36.993Z,7.55
2023-01-06T21:05:05.434Z,8.32
2023-01-06T21:07:33.831Z,8.23
2023-01-06T21:10:01.088Z,8.20
2023-01-06T21:12:28.270Z,8.10
2023-01-06T21:14:55.556Z,8.20
2023-01-06T21:17:22.924Z,7.70
2023-01-06T21:19:50.159Z,8.02
2023-01-06T21:22:17.320Z,7.75
2023-01-06T21:24:44.477Z,8.05
2023-01-06T21:27:11.629Z,8.18
2023-01-06T21:29:38.797Z,8.70
2023-01-06T21:32:05.963Z,8.18
2023-01-06T21:34:33.260Z,8.20
2023-01-06T21:37:00.437Z,7.45
2023-01-06T21:39:27.655Z,6.97
2023-01-06T21:42:13.254Z,8.10
2023-01-06T21:44:40.411Z,9.20
2023-01-06T21:47:07.576Z,8.02
2023-01-06T21:49:34.755Z,8.85
2023-01-06T21:52:03.655Z,8.38
2023-01-06T21:54:31.051Z,7.32
2023-01-06T21:56:58.246Z,7.55
2023-01-06T21:59:25.436Z,8.25
2023-01-06T22:01:52.687Z,7.60
2023-01-06T22:04:19.919Z,7.68
2023-01-06T22:06:47.185Z,7.82
2023-01-06T22:09:15.996Z,7.13
2023-01-06T22:11:43.977Z,6.70
2023-01-06T22:14:11.625Z,8.32
2023-01-06T22:16:40.093Z,8.13
2023-01-06T22:19:07.971Z,7.47
2023-01-06T22:21:35.968Z,7.43
2023-01-06T22:24:04.805Z,8.07
2023-01-06T22:26:32.054Z,7.43
2023-01-06T22:28:59.276Z,7.82
2023-01-06T22:31:27.283Z,7.55
2023-01-06T22:33:54.478Z,8.30
2023-01-06T22:36:21.674Z,8.45
2023-01-06T22:38:48.847Z,7.30
2023-01-06T22:41:16.008Z,7.78
2023-01-06T22:43:43.224Z,6.68
2023-01-06T22:46:10.421Z,6.63
2023-01-06T22:48:37.664Z,7.32
2023-01-06T22:51:06.582Z,6.45
2023-01-06T22:53:34.109Z,6.65
2023-01-06T22:56:04.340Z,6.30
2023-01-06T22:58:35.937Z,6.60
2023-01-06T23:01:03.751Z,6.95
2023-01-06T23:03:31.129Z,6.28
2023-01-06T23:06:03.227Z,6.72
2023-01-06T23:08:32.674Z,6.75
2023-01-06T23:11:01.904Z,6.90
2023-01-06T23:16:22.581Z,6.28
2023-01-06T23:18:50.494Z,6.40
2023-01-06T23:21:21.911Z,7.47
2023-01-06T23:23:50.284Z,7.18
2023-01-06T23:26:21.399Z,7.45
2023-01-06T23:28:48.779Z,6.60
2023-01-06T23:31:18.528Z,6.47
2023-01-06T23:33:50.835Z,7.25
2023-01-06T23:36:20.039Z,7.13
2023-01-06T23:38:47.633Z,6.30
2023-01-06T23:41:26.447Z,6.50
2023-01-06T23:43:54.351Z,6.43
2023-01-06T23:46:23.640Z,7.05
2023-01-06T23:51:18.486Z,6.38
2023-01-06T23:53:45.839Z,6.43
2023-01-06T23:56:18.615Z,6.65
2023-01-06T23:58:47.084Z,6.72
